Time;durP1;ratioP1;P1;durP2;ratioP2;P2;SDS_P1;SDS_P2;PMS_P1;PMS_P2;Temp;Humidity;BMP_temperature;BMP_pressure;BME280_temperature;BME280_humidity;BME280_pressure;Samples;Min_cycle;Max_cycle;Signal;HPM_P1;HPM_P2
2022/09/28 00:01:29;;;;;;;21.65;10.63;;;358.70;2329.60;;;;;;5036118;28;20489;-85
2022/09/28 00:03:59;;;;;;;13.23;5.47;;;358.90;2329.60;;;;;;5033050;28;20037;-84
2022/09/28 00:06:27;;;;;;;8.15;4.20;;;358.90;2329.60;;;;;;5036152;28;20024;-84
2022/09/28 00:08:54;;;;;;;11.05;3.75;;;358.90;2329.60;;;;;;5036115;28;20374;-85
2022/09/28 00:11:21;;;;;;;9.82;4.38;;;359.10;2329.60;;;;;;5036228;28;20116;-85
2022/09/28 00:13:55;;;;;;;11.65;4.97;;;359.00;2329.60;;;;;;5036191;28;20028;-85
2022/09/28 00:16:24;;;;;;;17.60;8.98;;;358.80;2329.60;;;;;;5036089;28;20588;-85
2022/09/28 00:18:51;;;;;;;13.65;5.72;;;359.00;2329.60;;;;;;5035891;28;20060;-85
2022/09/28 00:21:22;;;;;;;10.45;5.38;;;384.50;2329.60;;;;;;5036109;28;20033;-84
2022/09/28 00:26:54;;;;;;;13.13;5.68;;;359.10;2329.60;;;;;;5040758;28;20071;-85
2022/09/28 00:29:32;;;;;;;14.85;5.57;;;359.10;2329.60;;;;;;5039262;28;20066;-84
2022/09/28 00:32:08;;;;;;;10.38;4.30;;;359.10;2329.60;;;;;;5039281;28;20041;-85
2022/09/28 00:34:41;;;;;;;9.23;3.95;;;359.20;2329.60;;;;;;5040118;28;20028;-85
2022/09/28 00:37:08;;;;;;;7.25;3.67;;;359.20;2329.60;;;;;;5039670;28;20029;-85
2022/09/28 00:39:36;;;;;;;12.30;4.50;;;359.10;2329.60;;;;;;5040206;28;20087;-85
2022/09/28 00:42:03;;;;;;;22.17;9.13;;;359.20;2329.60;;;;;;5039915;28;20371;-85
2022/09/28 00:44:35;;;;;;;38.03;17.63;;;359.20;2329.60;;;;;;5039008;28;20135;-84
2022/09/28 00:47:24;;;;;;;31.53;16.67;;;359.00;2329.60;;;;;;5039660;28;20025;-85
2022/09/28 00:50:05;;;;;;;19.45;10.40;;;359.10;2329.60;;;;;;5038996;28;20429;-85
2022/09/28 00:52:53;;;;;;;24.70;12.15;;;359.10;2329.60;;;;;;5039603;28;20033;-84
2022/09/28 00:55:25;;;;;;;23.95;12.95;;;359.10;2329.60;;;;;;5038874;28;20379;-86
2022/09/28 00:57:57;;;;;;;18.40;10.70;;;359.10;2329.60;;;;;;5039274;28;20029;-84
2022/09/28 01:00:23;;;;;;;14.07;7.75;;;359.10;2329.60;;;;;;5039393;28;20088;-85
2022/09/28 01:02:49;;;;;;;17.42;9.48;;;358.90;2329.60;;;;;;5037451;28;20033;-84
2022/09/28 01:05:17;;;;;;;15.73;6.78;;;359.00;2329.60;;;;;;5038429;28;20040;-85
2022/09/28 01:07:45;;;;;;;16.67;8.90;;;358.90;2329.60;;;;;;5038590;28;20024;-86
2022/09/28 01:10:12;;;;;;;17.30;9.75;;;359.00;2329.60;;;;;;5055854;28;20112;-84
2022/09/28 01:12:37;;;;;;;17.48;9.68;;;384.10;2329.60;;;;;;5039059;28;20447;-84
2022/09/28 01:15:05;;;;;;;14.93;7.85;;;359.10;2329.60;;;;;;5039110;28;20069;-85
2022/09/28 01:17:33;;;;;;;14.25;6.03;;;359.10;2329.60;;;;;;5038985;28;20025;-84
2022/09/28 01:20:21;;;;;;;10.65;6.53;;;358.90;2329.60;;;;;;5039066;28;20024;-85
2022/09/28 01:23:13;;;;;;;10.68;6.40;;;358.80;2329.60;;;;;;5055190;28;20017;-84
2022/09/28 01:26:17;;;;;;;10.70;6.18;;;358.90;2329.60;;;;;;5063573;28;20037;-85
2022/09/28 01:28:46;;;;;;;11.40;6.07;;;359.10;2329.60;;;;;;5046282;28;20128;-84
2022/09/28 01:31:14;;;;;;;12.23;6.95;;;358.80;2329.60;;;;;;5038993;28;20098;-84
2022/09/28 01:33:49;;;;;;;10.95;6.45;;;358.90;2329.60;;;;;;5038544;28;20078;-85
2022/09/28 01:36:30;;;;;;;12.48;7.43;;;359.00;2329.60;;;;;;5038502;28;20078;-84
2022/09/28 01:39:11;;;;;;;12.80;8.32;;;359.00;2329.60;;;;;;5037897;28;20032;-84
2022/09/28 01:41:40;;;;;;;14.07;8.20;;;358.90;2329.60;;;;;;5038962;28;20083;-85
2022/09/28 01:44:11;;;;;;;17.23;11.55;;;358.90;2329.60;;;;;;5060016;28;20041;-85
2022/09/28 01:46:45;;;;;;;23.33;13.65;;;359.00;2329.60;;;;;;5058214;28;20028;-84
2022/09/28 01:49:33;;;;;;;22.75;12.13;;;359.00;2329.60;;;;;;5057577;28;20107;-84
2022/09/28 01:52:10;;;;;;;22.40;12.18;;;359.10;2329.60;;;;;;5058427;28;20047;-85
2022/09/28 01:54:42;;;;;;;23.50;12.45;;;359.10;2329.60;;;;;;5058186;28;20086;-83
2022/09/28 01:57:23;;;;;;;23.17;14.55;;;359.10;2329.60;;;;;;5058177;28;20028;-84
2022/09/28 02:00:00;;;;;;;23.10;13.77;;;359.20;2329.60;;;;;;5057979;28;20035;-84
2022/09/28 02:03:05;;;;;;;21.67;12.80;;;359.10;2329.60;;;;;;5058192;28;20119;-85
2022/09/28 02:05:39;;;;;;;21.85;14.23;;;359.10;2329.60;;;;;;5018056;28;20131;-84
2022/09/28 02:08:16;;;;;;;15.02;9.30;;;359.00;2329.60;;;;;;5047853;28;20021;-83
2022/09/28 02:11:08;;;;;;;9.88;5.28;;;358.90;2329.60;;;;;;5037693;28;20029;-85
2022/09/28 02:14:04;;;;;;;9.57;5.80;;;358.80;2329.60;;;;;;5036008;28;20036;-84
2022/09/28 02:16:41;;;;;;;9.90;5.40;;;358.90;2329.60;;;;;;5036900;28;20040;-84
2022/09/28 02:19:11;;;;;;;9.40;4.95;;;359.00;2329.60;;;;;;5037926;28;20048;-84
2022/09/28 02:21:56;;;;;;;16.38;5.07;;;358.90;2329.60;;;;;;5037436;28;20025;-84
2022/09/28 02:24:26;;;;;;;9.23;5.25;;;358.90;2329.60;;;;;;5055132;28;20409;-85
2022/09/28 02:26:56;;;;;;;11.32;5.60;;;359.00;2329.60;;;;;;5050007;28;20484;-84
2022/09/28 02:29:23;;;;;;;14.43;6.65;;;359.00;2329.60;;;;;;5036882;28;20035;-84
2022/09/28 02:31:50;;;;;;;11.95;5.63;;;358.80;2329.60;;;;;;5036930;28;20017;-85
2022/09/28 02:34:16;;;;;;;13.18;5.30;;;358.90;2329.60;;;;;;5037460;28;20032;-84
2022/09/28 02:36:43;;;;;;;7.55;4.72;;;358.80;2329.60;;;;;;5037526;28;20477;-84
2022/09/28 02:39:17;;;;;;;9.73;5.30;;;358.80;2329.60;;;;;;5037495;28;20025;-84
2022/09/28 02:42:11;;;;;;;10.73;4.40;;;358.90;2329.60;;;;;;5054949;28;20032;-85
2022/09/28 02:45:09;;;;;;;10.52;4.22;;;358.70;2329.60;;;;;;5067256;28;20540;-85
2022/09/28 02:47:57;;;;;;;7.00;4.35;;;358.80;2329.60;;;;;;5029074;28;20491;-83
2022/09/28 02:50:40;;;;;;;7.57;4.25;;;358.50;2329.60;;;;;;5033613;28;20117;-82
2022/09/28 02:53:12;;;;;;;7.00;4.60;;;358.70;2329.60;;;;;;5034207;28;20486;-84
2022/09/28 02:56:15;;;;;;;9.48;4.55;;;358.80;2329.60;;;;;;5033683;28;20036;-84
2022/09/28 02:58:56;;;;;;;7.25;4.43;;;358.90;2329.60;;;;;;5033560;28;20029;-83
2022/09/28 03:01:38;;;;;;;6.60;4.25;;;358.90;2329.60;;;;;;5033847;28;20068;-84
2022/09/28 03:04:20;;;;;;;10.30;4.78;;;358.80;2329.60;;;;;;5033544;28;20021;-85
2022/09/28 03:07:00;;;;;;;12.60;5.60;;;358.50;2329.60;;;;;;5033851;28;20026;-85
2022/09/28 03:09:51;;;;;;;8.70;4.70;;;333.70;2329.60;;;;;;5033428;28;20032;-86
2022/09/28 03:12:19;;;;;;;7.88;4.63;;;358.70;2329.60;;;;;;5033586;28;20027;-85
2022/09/28 03:14:45;;;;;;;8.75;4.80;;;358.80;2329.60;;;;;;5032566;28;20036;-85
2022/09/28 03:17:11;;;;;;;9.38;5.05;;;358.70;2329.60;;;;;;5033161;28;20029;-84
2022/09/28 03:19:37;;;;;;;10.30;4.60;;;358.70;2329.60;;;;;;5033048;28;20071;-85
2022/09/28 03:22:04;;;;;;;16.15;5.10;;;358.50;2329.60;;;;;;5033314;28;20064;-85
2022/09/28 03:24:30;;;;;;;11.52;5.00;;;358.70;2329.60;;;;;;5033062;28;20033;-84
2022/09/28 03:26:56;;;;;;;11.52;5.55;;;358.40;2329.60;;;;;;5033398;28;20026;-85
2022/09/28 03:29:21;;;;;;;13.45;5.63;;;358.50;2329.60;;;;;;5033291;28;20075;-86
2022/09/28 03:31:48;;;;;;;12.18;7.00;;;358.60;2329.60;;;;;;5032755;28;20056;-85
2022/09/28 03:34:14;;;;;;;11.98;5.05;;;358.60;2329.60;;;;;;5031936;28;20116;-85
2022/09/28 03:36:40;;;;;;;12.63;6.13;;;358.80;2329.60;;;;;;5032830;28;20036;-84
2022/09/28 03:39:06;;;;;;;10.82;5.88;;;358.60;2329.60;;;;;;5032822;28;20029;-85
2022/09/28 03:41:31;;;;;;;9.88;5.78;;;358.70;2329.60;;;;;;5033258;28;20078;-84
2022/09/28 03:43:57;;;;;;;11.68;6.00;;;358.70;2329.60;;;;;;5032943;28;20490;-83
2022/09/28 03:46:23;;;;;;;12.52;5.97;;;358.60;2329.60;;;;;;5033143;28;20164;-82
2022/09/28 03:48:49;;;;;;;15.82;6.47;;;358.60;2329.60;;;;;;5033339;28;20025;-85
2022/09/28 03:51:15;;;;;;;10.32;5.95;;;358.40;2329.60;;;;;;5033329;28;20045;-81
2022/09/28 03:53:40;;;;;;;12.02;5.88;;;358.50;2329.60;;;;;;5066289;28;20030;-82
2022/09/28 03:56:16;;;;;;;12.27;5.60;;;358.50;2329.60;;;;;;5033222;28;20033;-83
2022/09/28 03:58:42;;;;;;;10.98;5.85;;;358.50;2329.60;;;;;;5032766;28;20029;-83
2022/09/28 04:01:13;;;;;;;11.43;5.63;;;358.60;2329.60;;;;;;5032671;28;20426;-85
2022/09/28 04:03:39;;;;;;;10.98;5.65;;;358.50;2329.60;;;;;;5031874;28;20470;-86
2022/09/28 04:06:04;;;;;;;13.70;6.57;;;358.50;2329.60;;;;;;5033644;28;20030;-85
2022/09/28 04:08:30;;;;;;;12.20;6.72;;;358.50;2329.60;;;;;;5032495;28;20022;-85
2022/09/28 04:11:00;;;;;;;15.07;6.93;;;358.50;2329.60;;;;;;5032840;28;20034;-84
2022/09/28 04:13:27;;;;;;;10.73;6.63;;;358.70;2329.60;;;;;;5032669;28;20027;-85
2022/09/28 04:15:55;;;;;;;21.02;8.75;;;358.40;2329.60;;;;;;5065964;28;20043;-84
2022/09/28 04:18:22;;;;;;;16.15;9.07;;;358.50;2329.60;;;;;;5032747;28;20152;-84
2022/09/28 04:20:56;;;;;;;13.80;7.85;;;358.50;2329.60;;;;;;5065779;28;20463;-85
2022/09/28 04:23:22;;;;;;;19.10;8.20;;;358.50;2304.00;;;;;;5033052;28;20124;-84
2022/09/28 04:25:51;;;;;;;8.68;6.53;;;358.60;2329.60;;;;;;5032645;28;20124;-84
2022/09/28 04:31:01;;;;;;;11.88;8.13;;;358.70;2329.60;;;;;;5033797;28;20545;-83
2022/09/28 04:33:26;;;;;;;10.40;7.70;;;358.80;2329.60;;;;;;5032445;28;20025;-85
2022/09/28 04:35:52;;;;;;;10.57;7.47;;;358.50;2329.60;;;;;;5032766;28;20026;-84
2022/09/28 04:38:18;;;;;;;14.93;7.60;;;358.50;2329.60;;;;;;5032858;28;20057;-85
2022/09/28 04:40:44;;;;;;;13.68;7.90;;;358.70;2329.60;;;;;;5031454;28;20112;-85
2022/09/28 04:43:09;;;;;;;12.25;7.82;;;358.70;2329.60;;;;;;5032196;28;20056;-82
2022/09/28 04:45:35;;;;;;;14.52;7.85;;;358.80;2329.60;;;;;;5032582;28;20049;-82
2022/09/28 04:48:01;;;;;;;14.52;8.50;;;358.80;2329.60;;;;;;5031582;28;20483;-82
2022/09/28 04:50:27;;;;;;;14.52;8.23;;;358.80;2329.60;;;;;;5030384;28;20068;-80
2022/09/28 04:52:53;;;;;;;17.20;8.57;;;358.50;2329.60;;;;;;5032286;28;20053;-80
2022/09/28 04:55:19;;;;;;;14.18;8.32;;;358.70;2304.00;;;;;;5029793;28;20034;-82
2022/09/28 04:57:45;;;;;;;12.02;8.15;;;358.50;2329.60;;;;;;5041791;28;20037;-81
2022/09/28 05:00:11;;;;;;;11.98;7.25;;;358.70;1971.20;;;;;;5031504;28;20600;-82
2022/09/28 05:02:38;;;;;;;15.65;9.07;;;358.80;2329.60;;;;;;5031419;28;20160;-82
2022/09/28 05:05:04;;;;;;;14.77;8.35;;;358.80;2329.60;;;;;;5031824;28;20435;-83
2022/09/28 05:07:30;;;;;;;9.70;7.00;;;358.70;2329.60;;;;;;5032014;28;20140;-82
2022/09/28 05:09:55;;;;;;;12.55;6.78;;;358.90;2329.60;;;;;;5031715;28;20025;-83
2022/09/28 05:12:22;;;;;;;13.77;7.13;;;358.80;2329.60;;;;;;5032298;28;20063;-84
2022/09/28 05:14:48;;;;;;;10.13;5.68;;;358.60;2329.60;;;;;;5035587;28;20039;-87
2022/09/28 05:17:14;;;;;;;14.50;7.53;;;358.80;2329.60;;;;;;5035815;28;20025;-86
2022/09/28 05:19:39;;;;;;;14.27;7.97;;;358.70;2329.60;;;;;;5035518;28;20390;-84
2022/09/28 05:22:10;;;;;;;18.83;7.25;;;358.70;2329.60;;;;;;5035173;28;20025;-85
2022/09/28 05:24:36;;;;;;;12.73;7.88;;;358.80;2329.60;;;;;;5038394;28;20045;-85
2022/09/28 05:27:01;;;;;;;17.63;8.93;;;359.00;2329.60;;;;;;5055360;28;20043;-83
2022/09/28 05:29:27;;;;;;;19.48;9.05;;;358.90;2329.60;;;;;;5054639;28;20032;-83
2022/09/28 05:31:53;;;;;;;17.73;9.57;;;358.80;2329.60;;;;;;5055338;28;20048;-84
2022/09/28 05:34:19;;;;;;;16.52;9.73;;;358.90;2150.40;;;;;;5055214;28;20112;-83
2022/09/28 05:36:44;;;;;;;15.18;9.10;;;359.00;2329.60;;;;;;5054927;28;20044;-84
2022/09/28 05:39:10;;;;;;;17.67;9.27;;;359.20;2329.60;;;;;;5056455;28;20036;-84
2022/09/28 05:41:36;;;;;;;30.30;9.07;;;384.00;2329.60;;;;;;5055337;28;20028;-83
2022/09/28 05:44:02;;;;;;;13.77;8.65;;;359.30;2329.60;;;;;;5054764;28;20049;-84
2022/09/28 05:46:28;;;;;;;16.20;8.82;;;359.30;2329.60;;;;;;5055112;28;20033;-84
2022/09/28 05:48:54;;;;;;;17.85;10.65;;;359.30;2329.60;;;;;;5054713;28;20056;-81
2022/09/28 05:51:20;;;;;;;20.70;12.20;;;359.30;2329.60;;;;;;5054634;28;20028;-81
2022/09/28 05:53:46;;;;;;;19.27;12.88;;;359.20;2329.60;;;;;;5054907;28;20478;-85
2022/09/28 05:56:12;;;;;;;40.35;14.20;;;359.30;2329.60;;;;;;5054985;28;20033;-82
2022/09/28 05:58:37;;;;;;;34.08;13.88;;;359.30;2124.80;;;;;;5054577;28;20079;-82
2022/09/28 06:01:03;;;;;;;31.33;12.73;;;384.00;2329.60;;;;;;5054859;28;20104;-84
2022/09/28 06:03:29;;;;;;;22.35;11.90;;;359.30;2329.60;;;;;;5054515;28;20425;-83
2022/09/28 06:05:55;;;;;;;22.35;10.65;;;384.00;2329.60;;;;;;5054256;28;20085;-82
2022/09/28 06:08:21;;;;;;;21.23;10.32;;;384.10;2329.60;;;;;;5054605;28;20450;-82
2022/09/28 06:10:47;;;;;;;21.90;9.95;;;384.10;2329.60;;;;;;5054309;28;20029;-85
2022/09/28 06:13:12;;;;;;;17.63;10.50;;;384.10;2329.60;;;;;;5054369;28;20036;-81
2022/09/28 06:15:42;;;;;;;18.80;9.18;;;384.30;2329.60;;;;;;5054461;28;20039;-82
2022/09/28 06:18:13;;;;;;;16.23;9.00;;;384.40;1971.20;;;;;;5054418;28;20067;-85
2022/09/28 06:20:40;;;;;;;15.40;9.03;;;384.30;2329.60;;;;;;5054273;28;20024;-85
2022/09/28 06:23:07;;;;;;;14.80;10.75;;;384.20;2329.60;;;;;;5053987;28;20060;-84
2022/09/28 06:25:33;;;;;;;18.83;10.07;;;384.30;2329.60;;;;;;5053849;28;20033;-84
2022/09/28 06:28:04;;;;;;;26.05;13.70;;;384.40;2329.60;;;;;;5054095;28;20028;-82
2022/09/28 06:30:32;;;;;;;23.50;12.68;;;384.30;2329.60;;;;;;5055192;28;20079;-81
2022/09/28 06:33:00;;;;;;;21.60;14.18;;;384.30;2329.60;;;;;;5053650;28;20052;-80
2022/09/28 06:35:29;;;;;;;25.17;14.18;;;384.50;2329.60;;;;;;5053992;28;20060;-82
2022/09/28 06:37:55;;;;;;;22.75;14.48;;;384.40;2329.60;;;;;;5054776;28;20021;-82
2022/09/28 06:40:22;;;;;;;20.95;14.52;;;384.70;2201.60;;;;;;5053583;28;20112;-80
2022/09/28 06:42:58;;;;;;;24.48;15.07;;;384.70;2329.60;;;;;;5053448;28;20587;-81
2022/09/28 06:45:25;;;;;;;22.60;16.35;;;384.80;2329.60;;;;;;5053743;28;20040;-82
2022/09/28 06:47:56;;;;;;;24.95;16.95;;;384.80;2329.60;;;;;;5053355;28;20035;-84
2022/09/28 06:50:26;;;;;;;23.95;15.50;;;384.90;2329.60;;;;;;5053674;28;20052;-82
2022/09/28 06:52:53;;;;;;;25.95;14.68;;;409.60;2355.20;;;;;;5053421;28;20125;-83
2022/09/28 06:55:20;;;;;;;20.35;15.10;;;409.90;2355.20;;;;;;5054710;28;20033;-83
2022/09/28 06:57:47;;;;;;;23.75;14.35;;;409.80;2355.20;;;;;;5054429;28;20103;-81
2022/09/28 07:00:13;;;;;;;20.77;14.15;;;410.20;2355.20;;;;;;5053290;28;20025;-83
2022/09/28 07:02:39;;;;;;;23.35;13.82;;;409.70;2355.20;;;;;;5044195;28;20029;-81
2022/09/28 07:05:07;;;;;;;18.92;11.95;;;410.20;2355.20;;;;;;5033073;28;20059;-82
2022/09/28 07:07:33;;;;;;;19.40;11.40;;;410.30;2355.20;;;;;;5032012;28;20041;-80
2022/09/28 07:09:58;;;;;;;23.00;11.52;;;410.40;2355.20;;;;;;5033275;28;20022;-81
2022/09/28 07:12:25;;;;;;;17.77;10.25;;;410.40;2355.20;;;;;;5033318;28;20031;-82
2022/09/28 07:14:56;;;;;;;16.45;10.82;;;410.50;2355.20;;;;;;5034394;28;20033;-82
2022/09/28 07:17:22;;;;;;;21.52;12.23;;;435.30;2355.20;;;;;;5033655;28;20083;-84
2022/09/28 07:19:51;;;;;;;17.90;11.27;;;435.30;2355.20;;;;;;5033714;28;20080;-82
2022/09/28 07:22:20;;;;;;;18.65;11.27;;;435.30;2355.20;;;;;;5036246;28;20029;-86
2022/09/28 07:24:47;;;;;;;34.75;22.50;;;435.60;2355.20;;;;;;5037374;28;20125;-84
2022/09/28 07:27:13;;;;;;;21.30;15.27;;;435.50;2355.20;;;;;;5033614;28;20390;-85
2022/09/28 07:29:39;;;;;;;17.98;12.55;;;410.00;2355.20;;;;;;5033817;28;20021;-84
2022/09/28 07:32:05;;;;;;;23.60;12.70;;;435.80;2355.20;;;;;;5032585;28;20029;-82
2022/09/28 07:34:34;;;;;;;28.10;15.15;;;435.80;2355.20;;;;;;5032113;28;20025;-82
2022/09/28 07:37:00;;;;;;;18.52;11.88;;;435.90;2355.20;;;;;;5032582;28;20450;-83
2022/09/28 07:39:26;;;;;;;21.45;13.05;;;435.90;2355.20;;;;;;5033049;28;20053;-85
2022/09/28 07:41:52;;;;;;;14.55;9.32;;;436.10;2355.20;;;;;;5032806;28;20057;-84
2022/09/28 07:44:17;;;;;;;14.18;9.00;;;436.10;2355.20;;;;;;5032083;28;20109;-84
2022/09/28 07:46:43;;;;;;;14.68;9.68;;;436.10;2355.20;;;;;;5032852;28;20120;-82
2022/09/28 07:49:10;;;;;;;15.18;10.90;;;460.80;2380.80;;;;;;5031891;28;20030;-85
2022/09/28 07:51:35;;;;;;;18.05;9.60;;;460.90;2380.80;;;;;;5031864;28;20104;-82
2022/09/28 07:54:02;;;;;;;15.90;9.45;;;460.90;2380.80;;;;;;5031982;28;20176;-83
2022/09/28 07:56:29;;;;;;;18.88;10.02;;;460.90;2380.80;;;;;;5032165;28;20033;-82
2022/09/28 07:58:55;;;;;;;16.10;10.00;;;461.00;2380.80;;;;;;5032607;28;20080;-83
2022/09/28 08:01:21;;;;;;;18.10;9.57;;;461.10;2380.80;;;;;;5032420;28;20025;-83
2022/09/28 08:03:47;;;;;;;19.02;12.75;;;461.20;2380.80;;;;;;5032395;28;20032;-83
2022/09/28 08:06:15;;;;;;;18.15;11.15;;;461.10;2380.80;;;;;;5032672;28;20025;-85
2022/09/28 08:08:44;;;;;;;19.08;11.05;;;461.40;2380.80;;;;;;5032415;28;20040;-84
2022/09/28 08:11:16;;;;;;;16.27;11.30;;;461.30;2380.80;;;;;;5032374;28;20030;-83
2022/09/28 08:13:44;;;;;;;18.40;10.82;;;461.40;2380.80;;;;;;5032482;28;20061;-83
2022/09/28 08:16:11;;;;;;;16.35;10.52;;;461.40;2380.80;;;;;;5032407;28;20056;-83
2022/09/28 08:18:37;;;;;;;20.40;8.93;;;461.40;2380.80;;;;;;5033409;28;20395;-83
2022/09/28 08:23:49;;;;;;;18.80;10.32;;;;;;;;;;5033430;28;20032;-82
2022/09/28 08:26:15;;;;;;;21.45;9.75;;;486.60;2380.80;;;;;;5032110;28;20571;-82
2022/09/28 08:28:42;;;;;;;15.70;8.13;;;;;;;;;;5032325;28;20050;-83
2022/09/28 08:31:08;;;;;;;15.88;7.95;;;;;;;;;;5032475;28;20104;-84
2022/09/28 08:33:34;;;;;;;19.20;9.20;;;486.80;2380.80;;;;;;5031984;28;20021;-84
2022/09/28 08:36:01;;;;;;;17.08;8.23;;;486.70;2380.80;;;;;;5045335;28;20475;-84
2022/09/28 08:38:29;;;;;;;19.05;8.52;;;486.80;2380.80;;;;;;5034190;28;20029;-82
2022/09/28 08:41:35;;;;;;;13.60;8.48;;;486.90;2380.80;;;;;;5031171;28;20026;-81
2022/09/28 08:44:24;;;;;;;11.50;6.75;;;486.90;2380.80;;;;;;5046643;28;20107;-83
2022/09/28 08:46:59;;;;;;;14.00;5.75;;;487.10;2380.80;;;;;;5036645;28;20033;-83
2022/09/28 08:49:40;;;;;;;15.15;8.85;;;487.10;2380.80;;;;;;5039050;28;20475;-83
2022/09/28 08:52:27;;;;;;;23.33;13.57;;;487.20;2380.80;;;;;;5072453;28;20025;-82
2022/09/28 08:54:55;;;;;;;18.67;9.45;;;487.20;2380.80;;;;;;5039118;28;20057;-82
2022/09/28 08:57:34;;;;;;;16.80;10.35;;;487.30;2380.80;;;;;;5037430;28;20036;-83
2022/09/28 09:00:04;;;;;;;14.02;7.60;;;512.00;2380.80;;;;;;5049741;28;20033;-84
2022/09/28 09:02:35;;;;;;;18.02;7.30;;;512.10;2380.80;;;;;;5037261;28;20059;-83
2022/09/28 09:05:09;;;;;;;12.65;6.40;;;512.10;2380.80;;;;;;5050432;28;20036;-84
2022/09/28 09:07:59;;;;;;;18.63;7.95;;;512.20;2380.80;;;;;;5058419;28;20029;-84
2022/09/28 09:10:43;;;;;;;16.25;10.15;;;512.40;2380.80;;;;;;5052712;28;20029;-84
2022/09/28 09:13:22;;;;;;;8.50;4.75;;;512.60;2380.80;;;;;;5038875;28;20025;-85
2022/09/28 09:16:13;;;;;;;11.25;6.45;;;512.40;2380.80;;;;;;5036935;28;20040;-84
2022/09/28 09:19:02;;;;;;;15.18;7.35;;;512.50;2380.80;;;;;;5038678;28;20045;-84
2022/09/28 09:22:16;;;;;;;16.88;7.65;;;512.70;2380.80;;;;;;5038445;28;20458;-84
2022/09/28 09:24:59;;;;;;;14.75;6.03;;;;;;;;;;5013560;28;20599;-83
2022/09/28 09:27:26;;;;;;;11.25;7.40;;;;;;;;;;5057275;28;20009;-84
2022/09/28 09:30:05;;;;;;;11.93;5.15;;;;;;;;;;5055534;28;20037;-84
2022/09/28 09:32:58;;;;;;;12.35;6.20;;;538.20;2406.40;;;;;;5078734;28;20009;-83
2022/09/28 09:35:46;;;;;;;15.65;7.82;;;538.10;2406.40;;;;;;5055466;28;20033;-83
2022/09/28 09:38:31;;;;;;;10.80;5.93;;;538.20;2406.40;;;;;;5055247;28;20079;-83
2022/09/28 09:41:34;;;;;;;14.90;5.97;;;538.30;2406.40;;;;;;5055574;28;20056;-82
2022/09/28 09:44:38;;;;;;;10.60;6.10;;;538.30;2406.40;;;;;;5025593;28;20048;-80
2022/09/28 09:47:06;;;;;;;7.60;4.55;;;538.50;2406.40;;;;;;5048418;28;20029;-81
2022/09/28 09:49:35;;;;;;;14.38;4.72;;;538.50;2406.40;;;;;;5054502;28;20032;-82
2022/09/28 09:52:10;;;;;;;24.88;13.10;;;563.20;2432.00;;;;;;5052642;28;20469;-81
2022/09/28 09:54:45;;;;;;;17.35;9.57;;;563.20;2432.00;;;;;;5037120;28;20474;-82
2022/09/28 09:57:11;;;;;;;14.10;4.95;;;563.40;2432.00;;;;;;5055611;28;20417;-82
2022/09/28 09:59:40;;;;;;;11.27;5.28;;;563.20;2432.00;;;;;;5053075;28;20025;-82
2022/09/28 10:02:31;;;;;;;8.73;3.88;;;563.40;2432.00;;;;;;5040104;28;20450;-83
2022/09/28 10:05:05;;;;;;;11.88;5.05;;;563.60;2432.00;;;;;;5062066;28;20069;-82
2022/09/28 10:07:43;;;;;;;8.00;4.82;;;563.80;2432.00;;;;;;5038305;28;20037;-82
2022/09/28 10:10:34;;;;;;;8.18;2.38;;;563.80;2432.00;;;;;;5035784;28;20364;-81
2022/09/28 10:13:01;;;;;;;5.32;1.90;;;588.80;2432.00;;;;;;5037320;28;20021;-82
2022/09/28 10:15:29;;;;;;;4.55;2.00;;;;;;;;;;5055253;28;20496;-82
2022/09/28 10:17:56;;;;;;;8.02;1.98;;;;;;;;;;5052922;28;20025;-82
2022/09/28 10:20:24;;;;;;;6.20;2.10;;;;;;;;;;5053529;28;20025;-82
2022/09/28 10:22:55;;;;;;;5.00;1.92;;;;;;;;;;5053747;28;20017;-82
2022/09/28 10:25:22;;;;;;;6.30;2.50;;;;;;;;;;5053679;28;20522;-82
2022/09/28 10:27:51;;;;;;;7.32;2.28;;;;;;;;;;5052657;28;20604;-81
2022/09/28 10:30:17;;;;;;;9.13;2.50;;;;;;;;;;5053416;28;20079;-82
2022/09/28 10:32:48;;;;;;;4.68;2.15;;;;;;;;;;5053559;28;20024;-82
2022/09/28 10:35:17;;;;;;;5.82;2.45;;;;;;;;;;5053193;28;20025;-81
2022/09/28 10:37:51;;;;;;;7.10;2.58;;;;;;;;;;5053610;28;20024;-81
2022/09/28 10:40:28;;;;;;;4.00;1.65;;;;;;;;;;5053391;28;20017;-81
2022/09/28 10:43:22;;;;;;;7.47;2.63;;;;;;;;;;5052950;28;20045;-82
2022/09/28 10:45:48;;;;;;;8.10;2.35;;;;;;;;;;5028856;28;20045;-82
2022/09/28 10:48:20;;;;;;;7.57;2.78;;;;;;;;;;5052933;28;20025;-82
2022/09/28 10:50:59;;;;;;;12.02;3.35;;;;;;;;;;5053621;28;20091;-82
2022/09/28 10:53:25;;;;;;;5.50;1.85;;;;;;;;;;5053223;28;20056;-82
2022/09/28 10:55:58;;;;;;;9.25;2.33;;;;;;;;;;5052832;28;20074;-82
2022/09/28 10:58:28;;;;;;;8.82;2.53;;;;;;;;;;5053148;28;20024;-82
2022/09/28 11:00:59;;;;;;;9.95;4.22;;;;;;;;;;5053142;28;20029;-82
2022/09/28 11:03:27;;;;;;;9.52;3.13;;;;;;;;;;5052687;28;20075;-81
2022/09/28 11:05:57;;;;;;;9.40;2.38;;;;;;;;;;5052800;28;20029;-82
2022/09/28 11:08:28;;;;;;;8.02;3.20;;;;;;;;;;5053102;28;20025;-81
2022/09/28 11:11:01;;;;;;;8.20;3.80;;;;;;;;;;5053501;28;20537;-82
2022/09/28 11:13:27;;;;;;;8.15;2.88;;;;;;;;;;5052717;28;20032;-82
2022/09/28 11:15:54;;;;;;;7.20;2.53;;;;;;;;;;5054094;28;20028;-82
2022/09/28 11:18:27;;;;;;;8.20;3.03;;;;;;;;;;5053777;28;20025;-82
2022/09/28 11:21:06;;;;;;;9.25;3.13;;;;;;;;;;5052699;28;20474;-82
2022/09/28 11:23:32;;;;;;;8.13;2.80;;;563.60;2432.00;;;;;;5052323;28;20049;-82
2022/09/28 11:26:04;;;;;;;9.80;2.70;;;563.30;2432.00;;;;;;5035905;28;20455;-82
2022/09/28 11:28:34;;;;;;;10.00;3.35;;;563.50;2432.00;;;;;;5036042;28;20124;-82
2022/09/28 11:31:01;;;;;;;9.35;2.70;;;564.00;2432.00;;;;;;5035905;28;20025;-81
2022/09/28 11:33:27;;;;;;;8.32;3.45;;;564.10;2432.00;;;;;;5035954;28;20024;-83
2022/09/28 11:36:15;;;;;;;5.80;2.90;;;588.80;2432.00;;;;;;5052584;28;20071;-82
2022/09/28 11:39:02;;;;;;;5.82;2.20;;;564.00;2432.00;;;;;;5052292;28;20035;-82
2022/09/28 11:41:35;;;;;;;9.05;2.60;;;563.90;2432.00;;;;;;5052340;28;20039;-82
2022/09/28 11:44:22;;;;;;;6.55;2.28;;;563.90;2432.00;;;;;;5051783;28;20045;-82
2022/09/28 11:47:10;;;;;;;7.03;2.95;;;588.80;2432.00;;;;;;5052479;28;20029;-81
2022/09/28 11:49:43;;;;;;;5.13;2.17;;;;;;;;;;5035656;28;20497;-82
2022/09/28 11:52:28;;;;;;;5.47;2.30;;;614.50;2432.00;;;;;;5052130;28;20021;-84
2022/09/28 11:55:08;;;;;;;5.72;2.83;;;614.50;2432.00;;;;;;5035641;28;20067;-83
2022/09/28 11:57:40;;;;;;;8.38;2.85;;;;;;;;;;5035646;28;20028;-82
2022/09/28 12:00:09;;;;;;;4.10;2.00;;;;;;;;;;5051744;28;20025;-82
2022/09/28 12:02:38;;;;;;;5.30;2.55;;;;;;;;;;5052136;28;20111;-83
2022/09/28 12:05:15;;;;;;;7.70;2.55;;;;;;;;;;5051872;28;20078;-82
2022/09/28 12:07:53;;;;;;;7.10;2.55;;;;;;;;;;5052101;28;20063;-82
2022/09/28 12:10:32;;;;;;;7.65;2.00;;;;;;;;;;5052094;28;20107;-83
2022/09/28 12:13:00;;;;;;;5.95;3.08;;;;;;;;;;5051889;28;20021;-83
2022/09/28 12:15:47;;;;;;;9.30;2.80;;;;;;;;;;5052016;28;20052;-83
2022/09/28 12:18:17;;;;;;;5.07;2.22;;;;;;;;;;5024934;28;20055;-81
2022/09/28 12:20:49;;;;;;;5.38;2.00;;;;;;;;;;5051899;28;20021;-83
2022/09/28 12:23:24;;;;;;;6.10;2.97;;;;;;;;;;5055616;28;20024;-83
2022/09/28 12:26:11;;;;;;;8.43;3.10;;;;;;;;;;5055687;28;20021;-83
2022/09/28 12:28:50;;;;;;;6.93;2.80;;;;;;;;;;5035257;28;20044;-83
2022/09/28 12:31:32;;;;;;;5.80;2.80;;;;;;;;;;5056991;28;20027;-83
2022/09/28 12:33:59;;;;;;;6.07;2.25;;;;;;;;;;5055684;28;20028;-83
2022/09/28 12:36:46;;;;;;;9.48;3.33;;;;;;;;;;5055881;28;20029;-82
2022/09/28 12:39:30;;;;;;;7.25;3.55;;;614.40;2432.00;;;;;;5055789;28;20064;-83
2022/09/28 12:42:38;;;;;;;9.25;4.38;;;589.70;2432.00;;;;;;5055403;28;20074;-83
2022/09/28 12:45:51;;;;;;;8.55;3.13;;;589.50;2432.00;;;;;;5045753;28;20056;-82
2022/09/28 12:48:45;;;;;;;9.88;3.50;;;589.50;2432.00;;;;;;5017669;28;20116;-83
2022/09/28 12:51:46;;;;;;;14.88;4.03;;;589.50;2432.00;;;;;;5038658;28;20060;-83
2022/09/28 12:54:33;;;;;;;11.68;3.45;;;589.60;2432.00;;;;;;5038690;28;20056;-82
2022/09/28 12:57:18;;;;;;;6.20;2.95;;;589.60;2432.00;;;;;;5055568;28;20115;-83
2022/09/28 12:59:59;;;;;;;6.60;2.17;;;589.60;2432.00;;;;;;5055374;28;20032;-82
2022/09/28 13:02:37;;;;;;;7.60;2.50;;;589.50;2432.00;;;;;;5056361;28;20021;-82
2022/09/28 13:05:26;;;;;;;6.60;2.60;;;589.50;2432.00;;;;;;5055358;28;20060;-83